sensor_id;sensor_type;location;lat;lon;timestamp;P1;durP1;ratioP1;P2;durP2;ratioP2
22829;SDS011;11581;51.250;6.778;2023-12-20T00:01:38;3.35;;;1.90;;
22829;SDS011;11581;51.250;6.778;2023-12-20T00:04:05;5.30;;;2.50;;
22829;SDS011;11581;51.250;6.778;2023-12-20T00:06:32;4.78;;;2.42;;
22829;SDS011;11581;51.250;6.778;2023-12-20T00:08:59;3.90;;;2.38;;
22829;SDS011;11581;51.250;6.778;2023-12-20T00:11:25;5.05;;;2.40;;
22829;SDS011;11581;51.250;6.778;2023-12-20T00:13:53;3.72;;;2.15;;
22829;SDS011;11581;51.250;6.778;2023-12-20T00:16:20;3.65;;;2.00;;
22829;SDS011;11581;51.250;6.778;2023-12-20T00:18:46;4.05;;;2.17;;
22829;SDS011;11581;51.250;6.778;2023-12-20T00:21:13;3.40;;;2.25;;
22829;SDS011;11581;51.250;6.778;2023-12-20T00:23:40;4.97;;;2.20;;
22829;SDS011;11581;51.250;6.778;2023-12-20T00:26:06;3.30;;;2.20;;
22829;SDS011;11581;51.250;6.778;2023-12-20T00:28:33;7.35;;;2.60;;
22829;SDS011;11581;51.250;6.778;2023-12-20T00:31:01;6.70;;;2.40;;
22829;SDS011;11581;51.250;6.778;2023-12-20T00:33:28;6.35;;;2.33;;
22829;SDS011;11581;51.250;6.778;2023-12-20T00:35:54;5.55;;;2.60;;
22829;SDS011;11581;51.250;6.778;2023-12-20T00:38:21;5.95;;;2.95;;
22829;SDS011;11581;51.250;6.778;2023-12-20T00:40:48;4.57;;;2.55;;
22829;SDS011;11581;51.250;6.778;2023-12-20T00:43:14;4.78;;;2.60;;
22829;SDS011;11581;51.250;6.778;2023-12-20T00:45:41;4.55;;;2.47;;
22829;SDS011;11581;51.250;6.778;2023-12-20T00:48:09;5.93;;;2.72;;
22829;SDS011;11581;51.250;6.778;2023-12-20T00:50:36;7.70;;;2.72;;
22829;SDS011;11581;51.250;6.778;2023-12-20T00:53:02;5.45;;;3.10;;
22829;SDS011;11581;51.250;6.778;2023-12-20T00:55:29;9.43;;;3.67;;
22829;SDS011;11581;51.250;6.778;2023-12-20T00:57:56;5.95;;;2.90;;
22829;SDS011;11581;51.250;6.778;2023-12-20T01:00:24;16.33;;;3.60;;
22829;SDS011;11581;51.250;6.778;2023-12-20T01:02:51;7.38;;;3.75;;
22829;SDS011;11581;51.250;6.778;2023-12-20T01:05:19;8.07;;;3.65;;
22829;SDS011;11581;51.250;6.778;2023-12-20T01:07:48;7.53;;;4.35;;
22829;SDS011;11581;51.250;6.778;2023-12-20T01:10:14;6.35;;;4.38;;
22829;SDS011;11581;51.250;6.778;2023-12-20T01:12:42;8.57;;;5.00;;
22829;SDS011;11581;51.250;6.778;2023-12-20T01:15:09;9.73;;;5.57;;
22829;SDS011;11581;51.250;6.778;2023-12-20T01:17:36;11.32;;;6.38;;
22829;SDS011;11581;51.250;6.778;2023-12-20T01:20:03;10.45;;;5.60;;
22829;SDS011;11581;51.250;6.778;2023-12-20T01:22:32;8.48;;;6.05;;
22829;SDS011;11581;51.250;6.778;2023-12-20T01:25:00;9.05;;;7.00;;
22829;SDS011;11581;51.250;6.778;2023-12-20T01:27:27;10.15;;;6.72;;
22829;SDS011;11581;51.250;6.778;2023-12-20T01:29:55;10.68;;;6.28;;
22829;SDS011;11581;51.250;6.778;2023-12-20T01:32:21;9.55;;;6.38;;
22829;SDS011;11581;51.250;6.778;2023-12-20T01:34:48;12.10;;;7.13;;
22829;SDS011;11581;51.250;6.778;2023-12-20T01:37:14;11.60;;;7.22;;
22829;SDS011;11581;51.250;6.778;2023-12-20T01:39:42;10.65;;;7.20;;
22829;SDS011;11581;51.250;6.778;2023-12-20T01:42:09;11.85;;;7.38;;
22829;SDS011;11581;51.250;6.778;2023-12-20T01:44:36;9.82;;;6.40;;
22829;SDS011;11581;51.250;6.778;2023-12-20T01:47:02;11.00;;;6.55;;
22829;SDS011;11581;51.250;6.778;2023-12-20T01:49:29;12.52;;;6.47;;
22829;SDS011;11581;51.250;6.778;2023-12-20T01:51:56;12.85;;;6.50;;
22829;SDS011;11581;51.250;6.778;2023-12-20T01:54:23;10.90;;;6.13;;
22829;SDS011;11581;51.250;6.778;2023-12-20T01:56:51;10.23;;;5.22;;
22829;SDS011;11581;51.250;6.778;2023-12-20T01:59:18;11.95;;;5.70;;
22829;SDS011;11581;51.250;6.778;2023-12-20T02:01:46;10.73;;;5.20;;
22829;SDS011;11581;51.250;6.778;2023-12-20T02:04:13;11.15;;;4.82;;
22829;SDS011;11581;51.250;6.778;2023-12-20T02:06:40;9.45;;;5.30;;
22829;SDS011;11581;51.250;6.778;2023-12-20T02:09:06;13.52;;;4.53;;
22829;SDS011;11581;51.250;6.778;2023-12-20T02:11:33;9.60;;;4.78;;
22829;SDS011;11581;51.250;6.778;2023-12-20T02:14:03;7.03;;;4.40;;
22829;SDS011;11581;51.250;6.778;2023-12-20T02:16:30;8.45;;;4.65;;
22829;SDS011;11581;51.250;6.778;2023-12-20T02:18:56;12.13;;;4.78;;
22829;SDS011;11581;51.250;6.778;2023-12-20T02:21:26;10.07;;;4.80;;
22829;SDS011;11581;51.250;6.778;2023-12-20T02:23:58;7.72;;;4.78;;
22829;SDS011;11581;51.250;6.778;2023-12-20T02:26:24;13.63;;;4.82;;
22829;SDS011;11581;51.250;6.778;2023-12-20T02:28:51;11.50;;;4.35;;
22829;SDS011;11581;51.250;6.778;2023-12-20T02:31:20;7.68;;;4.82;;
22829;SDS011;11581;51.250;6.778;2023-12-20T02:33:47;16.40;;;5.57;;
22829;SDS011;11581;51.250;6.778;2023-12-20T02:36:13;11.95;;;4.95;;
22829;SDS011;11581;51.250;6.778;2023-12-20T02:38:41;11.43;;;4.15;;
22829;SDS011;11581;51.250;6.778;2023-12-20T02:41:08;9.73;;;4.80;;
22829;SDS011;11581;51.250;6.778;2023-12-20T02:43:35;12.73;;;4.40;;
22829;SDS011;11581;51.250;6.778;2023-12-20T02:46:01;10.43;;;3.67;;
22829;SDS011;11581;51.250;6.778;2023-12-20T02:48:28;10.30;;;3.95;;
22829;SDS011;11581;51.250;6.778;2023-12-20T02:50:54;11.35;;;3.67;;
22829;SDS011;11581;51.250;6.778;2023-12-20T02:53:21;14.23;;;4.13;;
22829;SDS011;11581;51.250;6.778;2023-12-20T02:55:49;8.40;;;3.30;;
22829;SDS011;11581;51.250;6.778;2023-12-20T02:58:16;8.32;;;2.72;;
22829;SDS011;11581;51.250;6.778;2023-12-20T03:00:43;6.90;;;2.85;;
22829;SDS011;11581;51.250;6.778;2023-12-20T03:03:10;10.50;;;2.72;;
22829;SDS011;11581;51.250;6.778;2023-12-20T03:05:36;8.82;;;2.53;;
22829;SDS011;11581;51.250;6.778;2023-12-20T03:08:03;12.15;;;2.65;;
22829;SDS011;11581;51.250;6.778;2023-12-20T03:10:30;10.07;;;2.45;;
22829;SDS011;11581;51.250;6.778;2023-12-20T03:12:58;8.45;;;1.92;;
22829;SDS011;11581;51.250;6.778;2023-12-20T03:15:25;7.45;;;2.50;;
22829;SDS011;11581;51.250;6.778;2023-12-20T03:17:51;11.70;;;2.80;;
22829;SDS011;11581;51.250;6.778;2023-12-20T03:20:18;14.43;;;2.80;;
22829;SDS011;11581;51.250;6.778;2023-12-20T03:22:44;7.80;;;2.20;;
22829;SDS011;11581;51.250;6.778;2023-12-20T03:25:11;8.52;;;2.08;;
22829;SDS011;11581;51.250;6.778;2023-12-20T03:27:38;6.47;;;2.13;;
22829;SDS011;11581;51.250;6.778;2023-12-20T03:30:06;9.73;;;2.38;;
22829;SDS011;11581;51.250;6.778;2023-12-20T03:32:33;10.38;;;2.22;;
22829;SDS011;11581;51.250;6.778;2023-12-20T03:35:00;11.57;;;1.92;;
22829;SDS011;11581;51.250;6.778;2023-12-20T03:37:27;8.73;;;2.65;;
22829;SDS011;11581;51.250;6.778;2023-12-20T03:39:54;14.68;;;2.17;;
22829;SDS011;11581;51.250;6.778;2023-12-20T03:42:21;7.95;;;1.88;;
22829;SDS011;11581;51.250;6.778;2023-12-20T03:44:47;8.73;;;2.25;;
22829;SDS011;11581;51.250;6.778;2023-12-20T03:47:15;7.47;;;1.83;;
22829;SDS011;11581;51.250;6.778;2023-12-20T03:49:42;9.82;;;2.15;;
22829;SDS011;11581;51.250;6.778;2023-12-20T03:52:08;14.40;;;2.70;;
22829;SDS011;11581;51.250;6.778;2023-12-20T03:54:35;16.88;;;3.03;;
22829;SDS011;11581;51.250;6.778;2023-12-20T03:57:02;7.15;;;2.03;;
22829;SDS011;11581;51.250;6.778;2023-12-20T03:59:29;8.82;;;2.33;;
22829;SDS011;11581;51.250;6.778;2023-12-20T04:01:56;9.45;;;2.25;;
22829;SDS011;11581;51.250;6.778;2023-12-20T04:04:24;13.70;;;2.55;;
22829;SDS011;11581;51.250;6.778;2023-12-20T04:06:50;6.80;;;2.20;;
22829;SDS011;11581;51.250;6.778;2023-12-20T04:09:17;11.25;;;2.45;;
22829;SDS011;11581;51.250;6.778;2023-12-20T04:11:43;10.18;;;2.30;;
22829;SDS011;11581;51.250;6.778;2023-12-20T04:14:10;9.88;;;2.20;;
22829;SDS011;11581;51.250;6.778;2023-12-20T04:16:37;8.80;;;3.20;;
22829;SDS011;11581;51.250;6.778;2023-12-20T04:19:04;10.65;;;2.58;;
22829;SDS011;11581;51.250;6.778;2023-12-20T04:21:32;13.00;;;2.60;;
22829;SDS011;11581;51.250;6.778;2023-12-20T04:23:58;11.05;;;3.00;;
22829;SDS011;11581;51.250;6.778;2023-12-20T04:26:25;15.13;;;2.40;;
22829;SDS011;11581;51.250;6.778;2023-12-20T04:28:52;13.20;;;2.88;;
22829;SDS011;11581;51.250;6.778;2023-12-20T04:31:18;12.55;;;2.92;;
22829;SDS011;11581;51.250;6.778;2023-12-20T04:33:45;7.70;;;2.65;;
22829;SDS011;11581;51.250;6.778;2023-12-20T04:36:11;18.35;;;2.88;;
22829;SDS011;11581;51.250;6.778;2023-12-20T04:38:39;14.13;;;3.72;;
22829;SDS011;11581;51.250;6.778;2023-12-20T04:41:06;8.68;;;2.78;;
22829;SDS011;11581;51.250;6.778;2023-12-20T04:43:33;12.20;;;3.25;;
22829;SDS011;11581;51.250;6.778;2023-12-20T04:45:59;11.65;;;2.80;;
22829;SDS011;11581;51.250;6.778;2023-12-20T04:48:26;11.85;;;3.10;;
22829;SDS011;11581;51.250;6.778;2023-12-20T04:50:52;16.17;;;3.75;;
22829;SDS011;11581;51.250;6.778;2023-12-20T04:53:19;10.43;;;3.03;;
22829;SDS011;11581;51.250;6.778;2023-12-20T04:55:47;12.05;;;3.78;;
22829;SDS011;11581;51.250;6.778;2023-12-20T04:58:14;13.02;;;3.80;;
22829;SDS011;11581;51.250;6.778;2023-12-20T05:00:40;12.93;;;3.90;;
22829;SDS011;11581;51.250;6.778;2023-12-20T05:03:07;12.10;;;3.20;;
22829;SDS011;11581;51.250;6.778;2023-12-20T05:05:34;9.93;;;3.25;;
22829;SDS011;11581;51.250;6.778;2023-12-20T05:08:00;13.32;;;3.70;;
22829;SDS011;11581;51.250;6.778;2023-12-20T05:10:27;8.50;;;3.53;;
22829;SDS011;11581;51.250;6.778;2023-12-20T05:12:55;14.75;;;3.03;;
22829;SDS011;11581;51.250;6.778;2023-12-20T05:15:22;12.63;;;3.63;;
22829;SDS011;11581;51.250;6.778;2023-12-20T05:17:48;11.13;;;3.03;;
22829;SDS011;11581;51.250;6.778;2023-12-20T05:20:15;11.80;;;3.28;;
22829;SDS011;11581;51.250;6.778;2023-12-20T05:22:41;9.95;;;3.53;;
22829;SDS011;11581;51.250;6.778;2023-12-20T05:25:09;13.38;;;3.15;;
22829;SDS011;11581;51.250;6.778;2023-12-20T05:27:36;9.80;;;2.53;;
22829;SDS011;11581;51.250;6.778;2023-12-20T05:30:05;12.73;;;3.47;;
22829;SDS011;11581;51.250;6.778;2023-12-20T05:32:32;11.95;;;3.10;;
22829;SDS011;11581;51.250;6.778;2023-12-20T05:34:59;12.52;;;3.08;;
22829;SDS011;11581;51.250;6.778;2023-12-20T05:37:25;15.52;;;3.13;;
22829;SDS011;11581;51.250;6.778;2023-12-20T05:39:52;9.15;;;3.15;;
22829;SDS011;11581;51.250;6.778;2023-12-20T05:42:19;12.25;;;3.22;;
22829;SDS011;11581;51.250;6.778;2023-12-20T05:44:45;15.38;;;3.70;;
22829;SDS011;11581;51.250;6.778;2023-12-20T05:47:13;10.52;;;3.20;;
22829;SDS011;11581;51.250;6.778;2023-12-20T05:49:40;11.18;;;3.67;;
22829;SDS011;11581;51.250;6.778;2023-12-20T05:52:07;6.75;;;3.35;;
22829;SDS011;11581;51.250;6.778;2023-12-20T05:54:33;11.00;;;4.20;;
22829;SDS011;11581;51.250;6.778;2023-12-20T05:57:00;16.05;;;3.58;;
22829;SDS011;11581;51.250;6.778;2023-12-20T05:59:26;9.38;;;2.90;;
22829;SDS011;11581;51.250;6.778;2023-12-20T06:01:53;16.27;;;4.55;;
22829;SDS011;11581;51.250;6.778;2023-12-20T06:04:21;14.27;;;3.65;;
22829;SDS011;11581;51.250;6.778;2023-12-20T06:06:47;11.40;;;3.83;;
22829;SDS011;11581;51.250;6.778;2023-12-20T06:09:14;16.42;;;3.40;;
22829;SDS011;11581;51.250;6.778;2023-12-20T06:11:41;11.02;;;3.75;;
22829;SDS011;11581;51.250;6.778;2023-12-20T06:14:08;11.70;;;3.10;;
22829;SDS011;11581;51.250;6.778;2023-12-20T06:16:35;9.07;;;3.13;;
22829;SDS011;11581;51.250;6.778;2023-12-20T06:19:01;11.02;;;3.55;;
22829;SDS011;11581;51.250;6.778;2023-12-20T06:21:32;8.77;;;3.28;;
22829;SDS011;11581;51.250;6.778;2023-12-20T06:23:59;13.70;;;4.13;;
22829;SDS011;11581;51.250;6.778;2023-12-20T06:26:26;11.52;;;3.63;;
22829;SDS011;11581;51.250;6.778;2023-12-20T06:28:52;8.85;;;3.20;;
22829;SDS011;11581;51.250;6.778;2023-12-20T06:31:19;15.50;;;3.88;;
22829;SDS011;11581;51.250;6.778;2023-12-20T06:33:46;16.65;;;3.75;;
22829;SDS011;11581;51.250;6.778;2023-12-20T06:36:13;10.98;;;3.33;;
22829;SDS011;11581;51.250;6.778;2023-12-20T06:38:41;7.88;;;2.70;;
22829;SDS011;11581;51.250;6.778;2023-12-20T06:41:08;8.70;;;3.22;;
22829;SDS011;11581;51.250;6.778;2023-12-20T06:43:35;13.90;;;3.70;;
22829;SDS011;11581;51.250;6.778;2023-12-20T06:46:01;8.77;;;2.90;;
22829;SDS011;11581;51.250;6.778;2023-12-20T06:48:28;11.00;;;3.55;;
22829;SDS011;11581;51.250;6.778;2023-12-20T06:50:55;13.25;;;3.92;;
22829;SDS011;11581;51.250;6.778;2023-12-20T06:53:21;11.98;;;3.28;;
22829;SDS011;11581;51.250;6.778;2023-12-20T06:55:49;12.93;;;3.55;;
22829;SDS011;11581;51.250;6.778;2023-12-20T06:58:16;10.00;;;3.40;;
22829;SDS011;11581;51.250;6.778;2023-12-20T07:00:42;11.43;;;3.90;;
22829;SDS011;11581;51.250;6.778;2023-12-20T07:03:09;8.93;;;3.28;;
22829;SDS011;11581;51.250;6.778;2023-12-20T07:05:36;15.98;;;3.55;;
22829;SDS011;11581;51.250;6.778;2023-12-20T07:08:03;13.02;;;4.03;;
22829;SDS011;11581;51.250;6.778;2023-12-20T07:10:30;12.48;;;3.70;;
22829;SDS011;11581;51.250;6.778;2023-12-20T07:12:58;11.15;;;3.53;;
22829;SDS011;11581;51.250;6.778;2023-12-20T07:15:24;13.20;;;3.63;;
22829;SDS011;11581;51.250;6.778;2023-12-20T07:17:52;10.15;;;3.40;;
22829;SDS011;11581;51.250;6.778;2023-12-20T07:20:18;14.45;;;4.28;;
22829;SDS011;11581;51.250;6.778;2023-12-20T07:22:45;16.27;;;4.13;;
22829;SDS011;11581;51.250;6.778;2023-12-20T07:25:11;12.55;;;3.10;;
22829;SDS011;11581;51.250;6.778;2023-12-20T07:27:38;10.23;;;3.20;;
22829;SDS011;11581;51.250;6.778;2023-12-20T07:30:07;12.57;;;3.58;;
22829;SDS011;11581;51.250;6.778;2023-12-20T07:32:34;14.40;;;4.70;;
22829;SDS011;11581;51.250;6.778;2023-12-20T07:35:01;13.68;;;2.88;;
22829;SDS011;11581;51.250;6.778;2023-12-20T07:37:28;19.00;;;4.10;;
22829;SDS011;11581;51.250;6.778;2023-12-20T07:39:54;12.93;;;3.13;;
22829;SDS011;11581;51.250;6.778;2023-12-20T07:42:21;14.45;;;4.20;;
22829;SDS011;11581;51.250;6.778;2023-12-20T07:44:48;13.68;;;3.63;;
22829;SDS011;11581;51.250;6.778;2023-12-20T07:47:16;13.88;;;3.10;;
22829;SDS011;11581;51.250;6.778;2023-12-20T07:49:46;9.07;;;3.17;;
22829;SDS011;11581;51.250;6.778;2023-12-20T07:52:13;11.20;;;3.00;;
22829;SDS011;11581;51.250;6.778;2023-12-20T07:54:40;14.52;;;3.88;;
22829;SDS011;11581;51.250;6.778;2023-12-20T07:57:07;10.85;;;2.80;;
22829;SDS011;11581;51.250;6.778;2023-12-20T07:59:34;11.23;;;3.83;;
22829;SDS011;11581;51.250;6.778;2023-12-20T08:02:00;13.18;;;3.20;;
22829;SDS011;11581;51.250;6.778;2023-12-20T08:04:28;13.15;;;3.88;;
22829;SDS011;11581;51.250;6.778;2023-12-20T08:06:55;14.40;;;3.67;;
22829;SDS011;11581;51.250;6.778;2023-12-20T08:09:22;9.93;;;3.95;;
22829;SDS011;11581;51.250;6.778;2023-12-20T08:11:50;11.35;;;3.50;;
22829;SDS011;11581;51.250;6.778;2023-12-20T08:14:16;9.82;;;3.08;;
22829;SDS011;11581;51.250;6.778;2023-12-20T08:16:43;11.57;;;3.58;;
22829;SDS011;11581;51.250;6.778;2023-12-20T08:19:10;8.98;;;2.75;;
22829;SDS011;11581;51.250;6.778;2023-12-20T08:21:38;8.13;;;3.03;;
22829;SDS011;11581;51.250;6.778;2023-12-20T08:24:05;9.90;;;2.90;;
22829;SDS011;11581;51.250;6.778;2023-12-20T08:26:32;10.75;;;2.92;;
22829;SDS011;11581;51.250;6.778;2023-12-20T08:28:59;10.38;;;2.95;;
22829;SDS011;11581;51.250;6.778;2023-12-20T08:31:25;9.82;;;3.22;;
22829;SDS011;11581;51.250;6.778;2023-12-20T08:33:52;12.82;;;3.25;;
22829;SDS011;11581;51.250;6.778;2023-12-20T08:36:19;13.15;;;3.45;;
22829;SDS011;11581;51.250;6.778;2023-12-20T08:38:48;11.35;;;3.22;;
22829;SDS011;11581;51.250;6.778;2023-12-20T08:41:15;12.68;;;2.80;;
22829;SDS011;11581;51.250;6.778;2023-12-20T08:43:42;10.95;;;3.40;;
22829;SDS011;11581;51.250;6.778;2023-12-20T08:46:08;13.23;;;3.80;;
22829;SDS011;11581;51.250;6.778;2023-12-20T08:48:35;13.20;;;2.88;;
22829;SDS011;11581;51.250;6.778;2023-12-20T08:51:02;11.32;;;3.03;;
22829;SDS011;11581;51.250;6.778;2023-12-20T08:53:29;10.75;;;3.42;;
22829;SDS011;11581;51.250;6.778;2023-12-20T08:55:57;11.23;;;3.30;;
22829;SDS011;11581;51.250;6.778;2023-12-20T08:58:26;9.77;;;2.92;;
22829;SDS011;11581;51.250;6.778;2023-12-20T09:00:53;7.78;;;2.72;;
22829;SDS011;11581;51.250;6.778;2023-12-20T09:03:19;10.63;;;2.55;;
22829;SDS011;11581;51.250;6.778;2023-12-20T09:05:46;12.10;;;3.28;;
22829;SDS011;11581;51.250;6.778;2023-12-20T09:08:12;10.82;;;2.88;;
22829;SDS011;11581;51.250;6.778;2023-12-20T09:10:39;13.32;;;2.97;;
22829;SDS011;11581;51.250;6.778;2023-12-20T09:13:07;11.63;;;2.83;;
22829;SDS011;11581;51.250;6.778;2023-12-20T09:15:33;14.65;;;3.35;;
22829;SDS011;11581;51.250;6.778;2023-12-20T09:18:03;17.13;;;3.30;;
22829;SDS011;11581;51.250;6.778;2023-12-20T09:20:30;8.75;;;2.60;;
22829;SDS011;11581;51.250;6.778;2023-12-20T09:22:56;11.75;;;3.08;;
22829;SDS011;11581;51.250;6.778;2023-12-20T09:25:23;15.68;;;3.60;;
22829;SDS011;11581;51.250;6.778;2023-12-20T09:27:51;10.02;;;2.60;;
22829;SDS011;11581;51.250;6.778;2023-12-20T09:30:19;12.75;;;2.97;;
22829;SDS011;11581;51.250;6.778;2023-12-20T09:32:45;13.10;;;2.78;;
22829;SDS011;11581;51.250;6.778;2023-12-20T09:35:12;12.15;;;2.92;;
22829;SDS011;11581;51.250;6.778;2023-12-20T09:37:40;11.10;;;2.85;;
22829;SDS011;11581;51.250;6.778;2023-12-20T09:40:10;16.42;;;3.05;;
22829;SDS011;11581;51.250;6.778;2023-12-20T09:42:40;8.90;;;2.53;;
22829;SDS011;11581;51.250;6.778;2023-12-20T09:45:19;13.50;;;2.90;;
22829;SDS011;11581;51.250;6.778;2023-12-20T09:47:47;14.10;;;2.92;;
22829;SDS011;11581;51.250;6.778;2023-12-20T09:50:14;9.30;;;3.05;;
22829;SDS011;11581;51.250;6.778;2023-12-20T09:52:41;14.85;;;2.63;;
22829;SDS011;11581;51.250;6.778;2023-12-20T09:55:09;13.40;;;3.42;;
22829;SDS011;11581;51.250;6.778;2023-12-20T09:57:36;12.48;;;2.22;;
22829;SDS011;11581;51.250;6.778;2023-12-20T10:00:03;12.52;;;3.15;;
22829;SDS011;11581;51.250;6.778;2023-12-20T10:02:39;9.48;;;3.28;;
22829;SDS011;11581;51.250;6.778;2023-12-20T10:07:41;11.73;;;2.55;;
22829;SDS011;11581;51.250;6.778;2023-12-20T10:10:08;14.40;;;3.35;;
22829;SDS011;11581;51.250;6.778;2023-12-20T10:12:36;14.15;;;2.88;;
22829;SDS011;11581;51.250;6.778;2023-12-20T10:15:03;15.15;;;2.67;;
22829;SDS011;11581;51.250;6.778;2023-12-20T10:17:31;13.55;;;3.08;;
22829;SDS011;11581;51.250;6.778;2023-12-20T10:19:59;13.20;;;2.95;;
22829;SDS011;11581;51.250;6.778;2023-12-20T10:22:26;9.90;;;2.55;;
22829;SDS011;11581;51.250;6.778;2023-12-20T10:24:53;11.75;;;2.83;;
22829;SDS011;11581;51.250;6.778;2023-12-20T10:27:22;11.32;;;2.28;;
22829;SDS011;11581;51.250;6.778;2023-12-20T10:29:49;14.27;;;3.33;;
22829;SDS011;11581;51.250;6.778;2023-12-20T10:32:21;9.75;;;2.63;;
22829;SDS011;11581;51.250;6.778;2023-12-20T10:34:48;12.13;;;3.17;;
22829;SDS011;11581;51.250;6.778;2023-12-20T10:37:17;13.20;;;2.70;;
22829;SDS011;11581;51.250;6.778;2023-12-20T10:39:43;8.10;;;2.35;;
22829;SDS011;11581;51.250;6.778;2023-12-20T10:42:13;7.80;;;2.40;;
22829;SDS011;11581;51.250;6.778;2023-12-20T10:44:42;10.48;;;2.58;;
22829;SDS011;11581;51.250;6.778;2023-12-20T10:47:09;9.75;;;2.33;;
22829;SDS011;11581;51.250;6.778;2023-12-20T10:49:37;15.88;;;3.10;;
22829;SDS011;11581;51.250;6.778;2023-12-20T10:52:06;9.20;;;2.60;;
22829;SDS011;11581;51.250;6.778;2023-12-20T10:54:36;11.43;;;2.72;;
22829;SDS011;11581;51.250;6.778;2023-12-20T10:57:03;16.42;;;2.78;;
22829;SDS011;11581;51.250;6.778;2023-12-20T10:59:32;10.50;;;2.47;;
22829;SDS011;11581;51.250;6.778;2023-12-20T11:02:02;13.73;;;2.60;;
22829;SDS011;11581;51.250;6.778;2023-12-20T11:04:31;8.35;;;2.17;;
22829;SDS011;11581;51.250;6.778;2023-12-20T11:07:07;11.57;;;2.30;;
22829;SDS011;11581;51.250;6.778;2023-12-20T11:09:45;6.55;;;2.00;;
22829;SDS011;11581;51.250;6.778;2023-12-20T11:12:22;16.63;;;2.88;;
22829;SDS011;11581;51.250;6.778;2023-12-20T11:14:55;10.80;;;2.47;;
22829;SDS011;11581;51.250;6.778;2023-12-20T11:17:26;16.20;;;2.92;;
22829;SDS011;11581;51.250;6.778;2023-12-20T11:20:06;8.95;;;2.58;;
22829;SDS011;11581;51.250;6.778;2023-12-20T11:22:35;13.18;;;2.65;;
22829;SDS011;11581;51.250;6.778;2023-12-20T11:25:06;13.27;;;3.13;;
22829;SDS011;11581;51.250;6.778;2023-12-20T11:27:34;9.23;;;2.38;;
22829;SDS011;11581;51.250;6.778;2023-12-20T11:30:02;9.52;;;2.97;;
22829;SDS011;11581;51.250;6.778;2023-12-20T11:32:31;15.15;;;2.42;;
22829;SDS011;11581;51.250;6.778;2023-12-20T11:35:01;8.75;;;2.65;;
22829;SDS011;11581;51.250;6.778;2023-12-20T11:37:43;10.93;;;3.22;;
22829;SDS011;11581;51.250;6.778;2023-12-20T11:40:14;7.72;;;2.47;;
22829;SDS011;11581;51.250;6.778;2023-12-20T11:42:42;10.52;;;2.50;;
22829;SDS011;11581;51.250;6.778;2023-12-20T11:45:10;10.13;;;2.35;;
22829;SDS011;11581;51.250;6.778;2023-12-20T11:47:36;8.80;;;2.10;;
22829;SDS011;11581;51.250;6.778;2023-12-20T11:50:04;10.75;;;2.75;;
22829;SDS011;11581;51.250;6.778;2023-12-20T11:52:31;10.95;;;2.70;;
22829;SDS011;11581;51.250;6.778;2023-12-20T11:54:58;7.25;;;2.25;;
22829;SDS011;11581;51.250;6.778;2023-12-20T11:57:26;6.43;;;2.13;;
22829;SDS011;11581;51.250;6.778;2023-12-20T11:59:53;10.65;;;2.50;;
22829;SDS011;11581;51.250;6.778;2023-12-20T12:02:20;10.93;;;2.35;;
22829;SDS011;11581;51.250;6.778;2023-12-20T12:04:48;13.48;;;2.88;;
22829;SDS011;11581;51.250;6.778;2023-12-20T12:07:15;10.25;;;2.55;;
22829;SDS011;11581;51.250;6.778;2023-12-20T12:09:42;7.20;;;2.55;;
22829;SDS011;11581;51.250;6.778;2023-12-20T12:12:09;12.25;;;2.92;;
22829;SDS011;11581;51.250;6.778;2023-12-20T12:14:38;14.70;;;2.90;;
22829;SDS011;11581;51.250;6.778;2023-12-20T12:17:09;13.20;;;2.60;;
22829;SDS011;11581;51.250;6.778;2023-12-20T12:19:36;16.98;;;3.00;;
22829;SDS011;11581;51.250;6.778;2023-12-20T12:22:06;8.35;;;2.75;;
22829;SDS011;11581;51.250;6.778;2023-12-20T12:24:35;9.65;;;2.50;;
22829;SDS011;11581;51.250;6.778;2023-12-20T12:27:02;6.50;;;2.20;;
22829;SDS011;11581;51.250;6.778;2023-12-20T12:29:29;11.10;;;3.13;;
22829;SDS011;11581;51.250;6.778;2023-12-20T12:31:57;11.10;;;3.05;;
22829;SDS011;11581;51.250;6.778;2023-12-20T12:34:24;9.38;;;2.25;;
22829;SDS011;11581;51.250;6.778;2023-12-20T12:36:53;7.07;;;2.05;;
22829;SDS011;11581;51.250;6.778;2023-12-20T12:39:19;14.23;;;2.92;;
22829;SDS011;11581;51.250;6.778;2023-12-20T12:41:46;9.00;;;2.13;;
22829;SDS011;11581;51.250;6.778;2023-12-20T12:44:13;9.55;;;2.47;;
22829;SDS011;11581;51.250;6.778;2023-12-20T12:46:39;7.78;;;2.08;;
22829;SDS011;11581;51.250;6.778;2023-12-20T12:49:07;11.40;;;2.83;;
22829;SDS011;11581;51.250;6.778;2023-12-20T12:51:34;7.40;;;2.42;;
22829;SDS011;11581;51.250;6.778;2023-12-20T12:54:01;10.65;;;2.50;;
22829;SDS011;11581;51.250;6.778;2023-12-20T12:56:28;7.15;;;1.95;;
22829;SDS011;11581;51.250;6.778;2023-12-20T12:58:55;10.82;;;2.50;;
22829;SDS011;11581;51.250;6.778;2023-12-20T13:01:22;8.32;;;2.67;;
22829;SDS011;11581;51.250;6.778;2023-12-20T13:03:48;10.57;;;2.58;;
22829;SDS011;11581;51.250;6.778;2023-12-20T13:06:16;9.05;;;2.70;;
22829;SDS011;11581;51.250;6.778;2023-12-20T13:08:43;8.40;;;2.63;;
22829;SDS011;11581;51.250;6.778;2023-12-20T13:11:10;8.95;;;2.30;;
22829;SDS011;11581;51.250;6.778;2023-12-20T13:13:37;6.05;;;2.35;;
22829;SDS011;11581;51.250;6.778;2023-12-20T13:16:04;9.25;;;2.58;;
22829;SDS011;11581;51.250;6.778;2023-12-20T13:18:31;8.43;;;2.60;;
22829;SDS011;11581;51.250;6.778;2023-12-20T13:20:57;9.23;;;2.63;;
22829;SDS011;11581;51.250;6.778;2023-12-20T13:23:25;17.27;;;2.85;;
22829;SDS011;11581;51.250;6.778;2023-12-20T13:25:52;7.72;;;2.30;;
22829;SDS011;11581;51.250;6.778;2023-12-20T13:28:18;7.22;;;2.30;;
22829;SDS011;11581;51.250;6.778;2023-12-20T13:30:45;12.63;;;3.15;;
22829;SDS011;11581;51.250;6.778;2023-12-20T13:33:12;11.00;;;2.60;;
22829;SDS011;11581;51.250;6.778;2023-12-20T13:35:38;12.63;;;2.58;;
22829;SDS011;11581;51.250;6.778;2023-12-20T13:38:05;8.93;;;3.10;;
22829;SDS011;11581;51.250;6.778;2023-12-20T13:40:34;10.82;;;2.75;;
22829;SDS011;11581;51.250;6.778;2023-12-20T13:43:00;10.77;;;2.90;;
22829;SDS011;11581;51.250;6.778;2023-12-20T13:45:28;11.15;;;3.17;;
22829;SDS011;11581;51.250;6.778;2023-12-20T13:47:54;10.93;;;2.75;;
22829;SDS011;11581;51.250;6.778;2023-12-20T13:50:21;10.32;;;3.17;;
22829;SDS011;11581;51.250;6.778;2023-12-20T13:52:48;7.28;;;2.88;;
22829;SDS011;11581;51.250;6.778;2023-12-20T13:55:14;9.55;;;2.55;;
22829;SDS011;11581;51.250;6.778;2023-12-20T13:57:43;10.00;;;2.80;;
22829;SDS011;11581;51.250;6.778;2023-12-20T14:00:10;7.05;;;3.00;;
22829;SDS011;11581;51.250;6.778;2023-12-20T14:02:40;12.20;;;2.60;;
22829;SDS011;11581;51.250;6.778;2023-12-20T14:05:07;10.60;;;2.60;;
22829;SDS011;11581;51.250;6.778;2023-12-20T14:07:34;8.68;;;2.20;;
22829;SDS011;11581;51.250;6.778;2023-12-20T14:10:01;10.48;;;2.45;;
22829;SDS011;11581;51.250;6.778;2023-12-20T14:12:28;11.55;;;2.90;;
22829;SDS011;11581;51.250;6.778;2023-12-20T14:14:56;7.28;;;2.55;;
22829;SDS011;11581;51.250;6.778;2023-12-20T14:17:22;8.18;;;2.28;;
22829;SDS011;11581;51.250;6.778;2023-12-20T14:19:49;9.52;;;2.58;;
22829;SDS011;11581;51.250;6.778;2023-12-20T14:22:16;10.50;;;2.75;;
22829;SDS011;11581;51.250;6.778;2023-12-20T14:24:43;7.93;;;2.50;;
22829;SDS011;11581;51.250;6.778;2023-12-20T14:27:10;11.93;;;2.55;;
22829;SDS011;11581;51.250;6.778;2023-12-20T14:29:38;11.32;;;2.55;;
22829;SDS011;11581;51.250;6.778;2023-12-20T14:32:07;9.23;;;3.25;;
22829;SDS011;11581;51.250;6.778;2023-12-20T14:34:33;10.73;;;3.45;;
22829;SDS011;11581;51.250;6.778;2023-12-20T14:37:00;10.93;;;2.50;;
22829;SDS011;11581;51.250;6.778;2023-12-20T14:39:27;12.13;;;2.70;;
22829;SDS011;11581;51.250;6.778;2023-12-20T14:41:53;12.40;;;3.50;;
22829;SDS011;11581;51.250;6.778;2023-12-20T14:44:20;8.93;;;2.70;;